createdAt,value
2017-08-04T00:02:37.023Z,12.15
2017-08-04T00:05:40.014Z,10.18
2017-08-04T00:08:42.993Z,11.52
2017-08-04T00:11:46.735Z,10.80
2017-08-04T00:14:49.724Z,11.30
2017-08-04T00:17:52.689Z,10.15
2017-08-04T00:20:55.670Z,10.30
2017-08-04T00:23:58.629Z,12.00
2017-08-04T00:27:01.647Z,11.10
2017-08-04T00:30:04.628Z,12.25
2017-08-04T00:33:07.990Z,10.30
2017-08-04T00:36:10.958Z,9.63
2017-08-04T00:39:14.992Z,10.85
2017-08-04T00:42:17.953Z,7.95
2017-08-04T00:45:21.011Z,11.93
2017-08-04T00:48:23.990Z,10.50
2017-08-04T00:51:27.815Z,9.70
2017-08-04T00:54:30.799Z,9.38
2017-08-04T00:57:33.789Z,9.35
2017-08-04T01:00:37.987Z,9.20
2017-08-04T01:03:41.717Z,9.18
2017-08-04T01:06:45.250Z,9.60
2017-08-04T01:09:48.336Z,9.02
2017-08-04T01:12:51.283Z,8.02
2017-08-04T01:15:55.266Z,7.72
2017-08-04T01:18:58.211Z,9.10
2017-08-04T01:22:01.203Z,9.15
2017-08-04T01:25:04.244Z,7.55
2017-08-04T01:28:07.986Z,9.82
2017-08-04T01:31:11.060Z,7.18
2017-08-04T01:34:14.787Z,7.50
2017-08-04T01:37:17.911Z,8.15
2017-08-04T01:40:20.899Z,9.70
2017-08-04T01:43:24.028Z,8.55
2017-08-04T01:46:27.804Z,9.20
2017-08-04T01:49:30.913Z,7.12
2017-08-04T01:52:33.874Z,7.78
2017-08-04T01:55:36.832Z,8.95
2017-08-04T01:58:39.554Z,7.77
2017-08-04T02:01:42.668Z,6.57
2017-08-04T02:04:46.407Z,6.82
2017-08-04T02:07:49.355Z,6.57
2017-08-04T02:10:52.481Z,7.10
2017-08-04T02:13:55.879Z,6.97
2017-08-04T02:16:58.934Z,6.70
2017-08-04T02:20:02.688Z,7.05
2017-08-04T02:23:06.387Z,7.18
2017-08-04T02:26:10.182Z,6.60
2017-08-04T02:29:13.234Z,6.82
2017-08-04T02:32:16.196Z,8.68
2017-08-04T02:35:19.233Z,6.80
2017-08-04T02:38:22.942Z,7.00
2017-08-04T02:41:26.755Z,7.05
2017-08-04T02:44:30.075Z,7.82
2017-08-04T02:47:33.134Z,6.90
2017-08-04T02:50:36.854Z,6.75
2017-08-04T02:53:39.917Z,6.22
2017-08-04T02:56:43.660Z,6.57
2017-08-04T02:59:46.705Z,7.82
2017-08-04T03:02:50.455Z,6.03
2017-08-04T03:05:53.509Z,7.00
2017-08-04T03:08:57.248Z,6.40
2017-08-04T03:12:00.295Z,6.25
2017-08-04T03:15:03.279Z,5.55
2017-08-04T03:18:06.070Z,6.72
2017-08-04T03:21:09.799Z,5.80
2017-08-04T03:24:12.875Z,6.32
2017-08-04T03:27:16.622Z,6.40
2017-08-04T03:30:19.728Z,6.62
2017-08-04T03:33:22.690Z,5.50
2017-08-04T03:36:25.751Z,5.32
2017-08-04T03:39:29.517Z,6.28
2017-08-04T03:42:32.535Z,6.18
2017-08-04T03:45:36.281Z,5.37
2017-08-04T03:48:39.729Z,6.80
2017-08-04T03:51:42.696Z,6.30
2017-08-04T03:54:45.710Z,6.25
2017-08-04T03:57:49.437Z,5.68
2017-08-04T04:00:52.526Z,5.55
2017-08-04T04:03:55.504Z,7.78
2017-08-04T04:06:59.300Z,6.18
2017-08-04T04:10:02.282Z,6.03
2017-08-04T04:13:05.374Z,5.70
2017-08-04T04:16:08.374Z,4.80
2017-08-04T04:19:12.206Z,6.40
2017-08-04T04:22:15.610Z,6.93
2017-08-04T04:25:18.662Z,7.35
2017-08-04T04:28:21.617Z,5.80
2017-08-04T04:31:25.666Z,8.40
2017-08-04T04:34:29.394Z,7.12
2017-08-04T04:37:32.463Z,6.20
2017-08-04T04:40:36.205Z,6.50
2017-08-04T04:43:39.366Z,6.75
2017-08-04T04:46:42.761Z,6.60
2017-08-04T04:49:46.559Z,6.72
2017-08-04T04:52:49.972Z,7.75
2017-08-04T04:55:53.773Z,6.53
2017-08-04T04:58:57.511Z,5.30
2017-08-04T05:02:00.479Z,6.10
2017-08-04T05:05:04.279Z,7.72
2017-08-04T05:08:07.255Z,8.48
2017-08-04T05:11:11.873Z,5.03
2017-08-04T05:14:15.715Z,5.65
2017-08-04T05:17:18.805Z,5.95
2017-08-04T05:20:21.966Z,6.03
2017-08-04T05:23:25.468Z,5.60
2017-08-04T05:26:28.457Z,5.80
2017-08-04T05:29:32.292Z,10.10
2017-08-04T05:32:35.357Z,5.95
2017-08-04T05:35:39.272Z,5.70
2017-08-04T05:38:43.082Z,5.80
2017-08-04T05:41:45.885Z,5.20
2017-08-04T05:44:48.977Z,5.47
2017-08-04T05:47:51.964Z,7.03
2017-08-04T05:50:55.139Z,5.18
2017-08-04T05:53:59.375Z,5.45
2017-08-04T05:57:02.466Z,6.32
2017-08-04T06:00:05.234Z,6.40
2017-08-04T06:03:09.044Z,4.87
2017-08-04T06:06:12.864Z,5.72
2017-08-04T06:09:16.456Z,5.85
2017-08-04T06:12:19.650Z,4.72
2017-08-04T06:15:22.743Z,6.82
2017-08-04T06:18:25.843Z,5.95
2017-08-04T06:21:28.824Z,4.40
2017-08-04T06:24:31.814Z,5.15
2017-08-04T06:27:35.418Z,5.65
2017-08-04T06:30:38.406Z,5.28
2017-08-04T06:33:41.499Z,5.10
2017-08-04T06:36:44.593Z,4.50
2017-08-04T06:39:47.580Z,4.72
2017-08-04T06:42:51.799Z,4.87
2017-08-04T06:45:54.789Z,5.85
2017-08-04T06:49:09.452Z,6.50
2017-08-04T06:52:23.908Z,5.80
2017-08-04T06:55:34.443Z,4.40
2017-08-04T06:58:38.289Z,5.15
2017-08-04T07:01:41.370Z,4.87
2017-08-04T07:04:44.360Z,4.68
2017-08-04T07:07:47.450Z,4.10
2017-08-04T07:10:50.439Z,3.67
2017-08-04T07:13:53.542Z,4.53
2017-08-04T07:16:56.520Z,7.03
2017-08-04T07:19:59.609Z,4.87
2017-08-04T07:23:02.598Z,4.28
2017-08-04T07:26:05.587Z,3.83
2017-08-04T07:29:08.676Z,3.25
2017-08-04T07:32:11.685Z,3.55
2017-08-04T07:35:14.777Z,5.87
2017-08-04T07:38:17.768Z,4.20
2017-08-04T07:41:20.835Z,4.60
2017-08-04T07:44:23.927Z,4.78
2017-08-04T07:47:26.915Z,4.20
2017-08-04T07:50:30.801Z,3.90
2017-08-04T07:53:54.053Z,4.18
2017-08-04T07:56:57.074Z,4.90
2017-08-04T08:00:00.121Z,4.62
2017-08-04T08:03:04.748Z,3.95
2017-08-04T08:06:08.152Z,4.25
2017-08-04T08:09:12.279Z,3.75
2017-08-04T08:12:15.398Z,4.78
2017-08-04T08:15:18.433Z,4.60
2017-08-04T08:18:24.343Z,4.82
2017-08-04T08:21:27.458Z,4.75
2017-08-04T08:24:30.487Z,2.95
2017-08-04T08:27:34.559Z,3.85
2017-08-04T08:30:38.375Z,4.05
2017-08-04T08:33:41.738Z,5.82
2017-08-04T08:36:45.497Z,3.15
2017-08-04T08:39:49.040Z,5.80
2017-08-04T08:42:53.204Z,4.17
2017-08-04T08:45:57.497Z,3.95
2017-08-04T08:49:00.508Z,3.22
2017-08-04T08:52:03.598Z,3.00
2017-08-04T08:55:06.554Z,3.08
2017-08-04T08:58:10.014Z,3.33
2017-08-04T09:01:14.035Z,3.50
2017-08-04T09:04:16.736Z,4.13
2017-08-04T09:07:19.511Z,4.10
2017-08-04T09:10:22.210Z,3.57
2017-08-04T09:13:25.962Z,3.73
2017-08-04T09:16:28.700Z,3.67
2017-08-04T09:19:32.693Z,5.27
2017-08-04T09:22:35.379Z,3.27
2017-08-04T09:25:38.102Z,3.90
2017-08-04T09:28:40.784Z,3.40
2017-08-04T09:31:52.103Z,3.37
2017-08-04T09:34:54.778Z,3.50
2017-08-04T09:37:57.567Z,2.70
2017-08-04T09:41:00.246Z,3.20
2017-08-04T09:44:03.030Z,4.20
2017-08-04T09:47:05.833Z,3.60
2017-08-04T09:50:08.539Z,2.90
2017-08-04T09:53:11.989Z,3.73
2017-08-04T09:56:14.738Z,3.23
2017-08-04T09:59:17.502Z,4.23
2017-08-04T10:02:20.962Z,3.70
2017-08-04T10:05:23.725Z,7.93
2017-08-04T10:08:26.436Z,3.87
2017-08-04T10:11:29.187Z,3.73
2017-08-04T10:14:31.901Z,3.73
2017-08-04T10:17:34.645Z,2.77
2017-08-04T10:20:37.363Z,3.80
2017-08-04T10:23:40.219Z,3.17
2017-08-04T10:26:42.920Z,3.50
2017-08-04T10:29:45.646Z,3.60
2017-08-04T10:32:49.176Z,4.70
2017-08-04T10:35:52.430Z,3.70
2017-08-04T10:38:55.157Z,3.80
2017-08-04T10:41:57.879Z,3.50
2017-08-04T10:45:00.742Z,3.10
2017-08-04T10:48:03.465Z,3.70
2017-08-04T10:51:07.021Z,3.40
2017-08-04T10:54:10.003Z,2.97
2017-08-04T10:57:12.777Z,3.00
2017-08-04T11:00:15.465Z,4.17
2017-08-04T11:03:18.166Z,2.73
2017-08-04T11:06:20.890Z,2.57
2017-08-04T11:09:23.609Z,2.60
2017-08-04T11:12:26.316Z,3.83
2017-08-04T11:15:29.079Z,3.20
2017-08-04T11:18:31.862Z,2.63
2017-08-04T11:21:34.553Z,3.03
2017-08-04T11:24:37.406Z,2.33
2017-08-04T11:27:40.094Z,3.07
2017-08-04T11:30:42.910Z,2.93
2017-08-04T11:33:45.255Z,3.13
2017-08-04T11:36:48.041Z,3.00
2017-08-04T11:39:50.731Z,2.50
2017-08-04T11:42:53.501Z,3.20
2017-08-04T11:45:56.595Z,2.53
2017-08-04T11:48:59.395Z,3.03
2017-08-04T11:52:02.091Z,2.50
2017-08-04T11:55:04.947Z,3.50
2017-08-04T11:58:07.669Z,2.60
2017-08-04T12:01:10.547Z,2.90
2017-08-04T12:04:13.275Z,3.00
2017-08-04T12:07:15.950Z,3.07
2017-08-04T12:10:18.950Z,3.40
2017-08-04T12:13:21.744Z,2.50
2017-08-04T12:16:24.464Z,2.43
2017-08-04T12:19:27.763Z,3.00
2017-08-04T12:22:30.475Z,3.03
2017-08-04T12:25:33.498Z,2.60
2017-08-04T12:28:37.095Z,3.37
2017-08-04T12:31:39.873Z,3.13
2017-08-04T12:34:42.586Z,3.10
2017-08-04T12:37:45.342Z,2.87
2017-08-04T12:40:48.178Z,3.20
2017-08-04T12:43:51.750Z,3.03
2017-08-04T12:46:54.485Z,2.90
2017-08-04T12:49:58.143Z,2.80
2017-08-04T12:53:00.855Z,3.00
2017-08-04T12:56:04.410Z,2.43
2017-08-04T12:59:07.174Z,2.20
2017-08-04T13:02:10.058Z,3.90
2017-08-04T13:05:13.059Z,3.20
2017-08-04T13:08:15.779Z,4.93
2017-08-04T13:11:18.642Z,3.60
2017-08-04T13:14:22.164Z,4.87
2017-08-04T13:20:32.816Z,4.77
2017-08-04T13:23:35.522Z,3.03
2017-08-04T13:26:38.385Z,5.53
2017-08-04T13:29:41.066Z,4.17
2017-08-04T13:32:44.351Z,3.80
2017-08-04T13:35:46.826Z,3.90
2017-08-04T13:38:49.725Z,2.57
2017-08-04T13:41:52.393Z,3.50
2017-08-04T13:44:56.321Z,3.90
2017-08-04T13:48:02.575Z,4.20
2017-08-04T13:51:05.609Z,3.83
2017-08-04T13:54:08.459Z,4.00
2017-08-04T13:57:11.483Z,3.23
2017-08-04T14:03:29.892Z,3.37
2017-08-04T14:06:32.809Z,2.43
2017-08-04T14:09:35.622Z,2.70
2017-08-04T14:12:39.564Z,3.30
2017-08-04T14:16:18.483Z,3.87
2017-08-04T14:19:22.233Z,3.40
2017-08-04T14:22:26.138Z,3.60
2017-08-04T14:25:30.182Z,3.80
2017-08-04T14:28:33.390Z,2.93
2017-08-04T14:31:36.316Z,3.43
2017-08-04T14:34:39.274Z,2.67
2017-08-04T14:37:42.064Z,3.83
2017-08-04T14:40:45.386Z,2.90
2017-08-04T14:43:48.479Z,2.67
2017-08-04T14:46:51.644Z,2.97
2017-08-04T14:49:54.386Z,3.50
2017-08-04T14:52:57.991Z,3.63
2017-08-04T14:56:00.677Z,3.00
2017-08-04T14:59:05.725Z,3.70
2017-08-04T15:02:13.039Z,3.70
2017-08-04T15:05:27.325Z,3.20
2017-08-04T15:08:34.884Z,3.70
2017-08-04T15:11:38.375Z,3.80
2017-08-04T15:14:43.008Z,4.60
2017-08-04T15:17:46.719Z,3.70
2017-08-04T15:20:50.222Z,4.20
2017-08-04T15:23:53.448Z,3.23
2017-08-04T15:26:57.493Z,3.73
2017-08-04T15:30:00.490Z,4.23
2017-08-04T15:33:06.761Z,3.30
2017-08-04T15:36:10.659Z,3.37
2017-08-04T15:43:10.722Z,4.07
2017-08-04T15:46:14.798Z,3.90
2017-08-04T15:49:19.007Z,3.33
2017-08-04T15:52:22.038Z,2.80
2017-08-04T15:55:25.959Z,3.03
2017-08-04T15:58:29.077Z,4.93
2017-08-04T16:01:39.820Z,3.33
2017-08-04T16:04:42.930Z,3.47
2017-08-04T16:07:46.742Z,3.87
2017-08-04T16:10:58.777Z,3.10
2017-08-04T16:14:01.679Z,3.70
2017-08-04T16:17:05.644Z,4.27
2017-08-04T16:20:08.443Z,3.70
2017-08-04T16:23:12.242Z,3.37
2017-08-04T16:26:15.180Z,3.20
2017-08-04T16:29:18.271Z,2.77
2017-08-04T16:32:21.215Z,3.13
2017-08-04T16:35:24.195Z,3.43
2017-08-04T16:38:27.235Z,2.83
2017-08-04T16:41:31.065Z,4.27
2017-08-04T16:44:36.173Z,3.33
2017-08-04T16:47:41.546Z,2.47
2017-08-04T16:54:20.756Z,3.60
2017-08-04T16:57:26.832Z,4.50
2017-08-04T17:00:30.597Z,5.20
2017-08-04T17:03:34.538Z,3.00
2017-08-04T17:06:38.275Z,4.23
2017-08-04T17:09:45.042Z,4.23
2017-08-04T17:12:49.082Z,3.70
2017-08-04T17:16:34.389Z,5.63
2017-08-04T17:19:44.531Z,5.80
2017-08-04T17:22:52.890Z,4.87
2017-08-04T17:26:00.754Z,4.07
2017-08-04T17:29:11.006Z,3.10
2017-08-04T17:32:23.861Z,3.50
2017-08-04T17:35:37.587Z,3.80
2017-08-04T17:38:49.868Z,3.10
2017-08-04T17:42:02.209Z,4.15
2017-08-04T17:45:11.766Z,4.03
2017-08-04T17:48:26.943Z,3.22
2017-08-04T17:51:34.324Z,3.08
2017-08-04T17:55:09.189Z,3.08
2017-08-04T17:58:25.142Z,4.95
2017-08-04T18:01:45.611Z,2.75
2017-08-04T18:04:50.997Z,3.70
2017-08-04T18:08:02.691Z,2.92
2017-08-04T18:11:16.139Z,3.50
2017-08-04T18:14:33.481Z,3.83
2017-08-04T18:17:47.484Z,3.45
2017-08-04T18:24:13.775Z,3.58
2017-08-04T18:27:17.641Z,4.62
2017-08-04T18:30:21.378Z,4.87
2017-08-04T18:33:25.865Z,3.78
2017-08-04T18:36:29.540Z,3.40
2017-08-04T18:39:33.300Z,3.03
2017-08-04T18:42:37.971Z,4.50
2017-08-04T18:45:42.054Z,2.97
2017-08-04T18:48:45.823Z,3.62
2017-08-04T18:51:50.547Z,4.68
2017-08-04T18:54:54.310Z,3.25
2017-08-04T18:57:58.039Z,3.58
2017-08-04T19:01:01.786Z,3.60
2017-08-04T19:04:06.300Z,4.35
2017-08-04T19:07:10.126Z,3.67
2017-08-04T19:10:15.058Z,4.07
2017-08-04T19:13:19.542Z,4.00
2017-08-04T19:16:23.278Z,3.67
2017-08-04T19:19:27.769Z,4.32
2017-08-04T19:22:31.522Z,3.67
2017-08-04T19:25:35.883Z,4.82
2017-08-04T19:28:39.673Z,4.70
2017-08-04T19:31:43.394Z,3.97
2017-08-04T19:34:47.148Z,4.57
2017-08-04T19:37:52.220Z,4.68
2017-08-04T19:40:56.801Z,4.18
2017-08-04T19:44:00.654Z,4.72
2017-08-04T19:47:04.428Z,4.87
2017-08-04T19:50:08.942Z,5.00
2017-08-04T19:53:12.710Z,4.18
2017-08-04T19:56:16.594Z,6.22
2017-08-04T19:59:22.196Z,5.40
2017-08-04T20:02:27.065Z,5.93
2017-08-04T20:05:30.962Z,4.15
2017-08-04T20:08:35.575Z,4.30
2017-08-04T20:11:39.351Z,5.25
2017-08-04T20:14:43.093Z,4.22
2017-08-04T20:17:46.894Z,3.85
2017-08-04T20:20:51.331Z,5.60
2017-08-04T20:23:55.141Z,5.55
2017-08-04T20:26:59.622Z,5.45
2017-08-04T20:30:03.635Z,4.28
2017-08-04T20:33:07.677Z,3.58
2017-08-04T20:36:11.414Z,3.67
2017-08-04T20:39:16.357Z,4.43
2017-08-04T20:42:20.423Z,4.40
2017-08-04T20:45:24.359Z,5.25
2017-08-04T20:48:28.107Z,4.78
2017-08-04T20:51:31.943Z,5.05
2017-08-04T20:54:36.085Z,5.55
2017-08-04T20:57:40.747Z,4.15
2017-08-04T21:00:45.667Z,5.50
2017-08-04T21:03:49.482Z,6.15
2017-08-04T21:06:53.236Z,5.03
2017-08-04T21:09:57.038Z,6.75
2017-08-04T21:13:00.780Z,5.95
2017-08-04T21:16:05.072Z,5.12
2017-08-04T21:19:09.802Z,4.07
2017-08-04T21:22:13.705Z,4.68
2017-08-04T21:25:17.309Z,5.32
2017-08-04T21:28:21.066Z,5.25
2017-08-04T21:31:24.882Z,4.30
2017-08-04T21:34:28.621Z,5.65
2017-08-04T21:37:32.416Z,4.65
2017-08-04T21:40:36.159Z,5.12
2017-08-04T21:43:40.716Z,5.18
2017-08-04T21:46:44.597Z,4.80
2017-08-04T21:49:49.282Z,4.68
2017-08-04T21:52:53.015Z,4.85
2017-08-04T21:55:57.359Z,5.12
2017-08-04T21:59:01.090Z,5.35
2017-08-04T22:02:05.384Z,5.47
2017-08-04T22:05:09.107Z,4.97
2017-08-04T22:08:14.202Z,4.97
2017-08-04T22:11:18.795Z,5.35
2017-08-04T22:14:22.579Z,6.12
2017-08-04T22:17:26.321Z,4.55
2017-08-04T22:20:30.117Z,4.53
2017-08-04T22:23:33.927Z,4.72
2017-08-04T22:26:37.767Z,5.20
2017-08-04T22:29:42.348Z,5.25
2017-08-04T22:32:46.054Z,5.18
2017-08-04T22:35:49.876Z,4.93
2017-08-04T22:38:53.651Z,6.12
2017-08-04T22:41:57.515Z,4.43
2017-08-04T22:45:02.019Z,4.65
2017-08-04T22:48:05.885Z,6.28
2017-08-04T22:51:09.622Z,6.37
2017-08-04T22:54:13.429Z,5.07
2017-08-04T22:57:17.163Z,4.30
2017-08-04T23:00:21.130Z,4.78
2017-08-04T23:03:24.863Z,4.53
2017-08-04T23:06:28.638Z,5.80
2017-08-04T23:09:32.376Z,4.82
2017-08-04T23:12:36.183Z,5.12
2017-08-04T23:15:39.921Z,4.80
2017-08-04T23:18:44.479Z,4.30
2017-08-04T23:21:48.233Z,3.95
2017-08-04T23:24:52.794Z,6.43
2017-08-04T23:27:56.539Z,4.75
2017-08-04T23:31:00.329Z,5.65
2017-08-04T23:34:04.104Z,5.20
2017-08-04T23:37:07.827Z,5.00
2017-08-04T23:40:11.642Z,5.87
2017-08-04T23:43:15.370Z,4.12
2017-08-04T23:46:19.099Z,4.82
2017-08-04T23:49:23.702Z,4.60
2017-08-04T23:52:27.430Z,5.28
2017-08-04T23:55:31.199Z,6.43
2017-08-04T23:58:34.918Z,4.55
